createdAt,value
2022-12-04T00:00:19.545Z,0.20
2022-12-04T00:03:24.550Z,0.20
2022-12-04T00:06:29.408Z,0.20
2022-12-04T00:09:32.791Z,0.20
2022-12-04T00:12:36.431Z,0.80
2022-12-04T00:15:43.518Z,0.30
2022-12-04T00:18:48.585Z,0.30
2022-12-04T00:21:52.383Z,0.30
2022-12-04T00:24:56.189Z,1.00
2022-12-04T00:27:59.395Z,0.20
2022-12-04T00:31:06.105Z,0.20
2022-12-04T00:34:10.705Z,0.20
2022-12-04T00:37:14.006Z,0.50
2022-12-04T00:40:17.507Z,0.20
2022-12-04T00:43:21.631Z,0.20
2022-12-04T00:46:25.174Z,0.20
2022-12-04T00:49:30.007Z,0.50
2022-12-04T00:52:33.235Z,0.20
2022-12-04T00:55:39.416Z,0.20
2022-12-04T00:58:43.423Z,0.10
2022-12-04T01:01:46.635Z,0.10
2022-12-04T01:04:51.389Z,0.10
2022-12-04T01:07:55.132Z,0.20
2022-12-04T01:10:58.507Z,0.20
2022-12-04T01:14:02.094Z,0.10
2022-12-04T01:17:05.542Z,0.00
2022-12-04T01:20:12.496Z,0.30
2022-12-04T01:23:15.913Z,0.00
2022-12-04T01:26:19.127Z,0.10
2022-12-04T01:29:22.424Z,0.00
2022-12-04T01:32:25.657Z,0.10
2022-12-04T01:35:30.327Z,0.00
2022-12-04T01:38:33.716Z,0.10
2022-12-04T01:41:37.134Z,0.30
2022-12-04T01:44:43.476Z,0.00
2022-12-04T01:47:47.015Z,0.80
2022-12-04T01:50:55.130Z,0.00
2022-12-04T01:54:02.180Z,0.30
2022-12-04T01:57:12.497Z,0.20
2022-12-04T02:03:55.302Z,-0.10
2022-12-04T02:06:59.948Z,-0.10
2022-12-04T02:10:06.387Z,0.00
2022-12-04T02:13:16.047Z,-0.10
2022-12-04T02:16:26.039Z,-0.10
2022-12-04T02:19:51.244Z,0.40
2022-12-04T02:23:16.654Z,-0.10
2022-12-04T02:26:43.609Z,-0.10
2022-12-04T02:29:58.332Z,0.00
2022-12-04T02:33:06.310Z,0.20
2022-12-04T02:36:14.192Z,0.70
2022-12-04T02:39:24.045Z,0.20
2022-12-04T02:42:34.030Z,0.10
2022-12-04T02:45:42.578Z,0.00
2022-12-04T02:48:49.538Z,-0.10
2022-12-04T02:51:55.956Z,0.10
2022-12-04T02:55:08.021Z,0.30
2022-12-04T02:58:15.116Z,0.00
2022-12-04T03:01:24.234Z,0.00
2022-12-04T03:04:30.655Z,0.10
2022-12-04T03:07:39.120Z,0.70
2022-12-04T03:10:47.371Z,-0.20
2022-12-04T03:13:54.710Z,-0.20
2022-12-04T03:17:03.939Z,0.00
2022-12-04T03:20:12.061Z,0.50
2022-12-04T03:23:19.647Z,-0.10
2022-12-04T03:26:28.426Z,-0.10
2022-12-04T03:29:40.252Z,-0.10
2022-12-04T03:32:47.898Z,0.50
2022-12-04T03:35:55.151Z,0.00
2022-12-04T03:39:04.112Z,0.10
2022-12-04T03:42:14.754Z,-0.10
2022-12-04T03:45:22.920Z,-0.10
2022-12-04T03:48:33.751Z,1.00
2022-12-04T03:51:41.682Z,0.30
2022-12-04T03:54:50.237Z,-0.20
2022-12-04T03:57:57.796Z,-0.20
2022-12-04T04:01:04.473Z,-0.20
2022-12-04T04:04:13.934Z,-0.20
2022-12-04T04:07:23.443Z,-0.20
2022-12-04T04:10:28.416Z,-0.10
2022-12-04T04:13:55.389Z,-0.20
2022-12-04T04:17:19.797Z,-0.10
2022-12-04T04:20:46.223Z,-0.10
2022-12-04T04:24:10.256Z,-0.10
2022-12-04T04:27:14.518Z,0.00
2022-12-04T04:30:17.803Z,0.00
2022-12-04T04:33:21.472Z,-0.20
2022-12-04T04:36:36.739Z,-0.10
2022-12-04T04:39:45.039Z,0.10
2022-12-04T04:42:52.568Z,-0.20
2022-12-04T04:46:01.720Z,0.10
2022-12-04T04:49:09.187Z,-0.20
2022-12-04T04:52:14.171Z,0.30
2022-12-04T04:55:18.687Z,-0.20
2022-12-04T04:58:23.012Z,-0.20
2022-12-04T05:01:29.157Z,-0.10
2022-12-04T05:04:32.379Z,0.30
2022-12-04T05:07:36.979Z,-0.20
2022-12-04T05:10:40.158Z,0.20
2022-12-04T05:13:43.739Z,-0.20
2022-12-04T05:16:46.889Z,-0.20
2022-12-04T05:19:57.386Z,-0.10
2022-12-04T05:23:02.271Z,-0.10
2022-12-04T05:26:06.289Z,-0.20
2022-12-04T05:29:09.432Z,-0.20
2022-12-04T05:32:12.570Z,0.20
2022-12-04T05:35:15.756Z,0.80
2022-12-04T05:38:20.483Z,-0.10
2022-12-04T05:41:24.136Z,-0.10
2022-12-04T05:44:27.338Z,-0.10
2022-12-04T05:47:30.461Z,0.00
2022-12-04T05:50:33.835Z,0.60
2022-12-04T05:53:38.635Z,0.00
2022-12-04T05:56:41.881Z,-0.10
2022-12-04T05:59:45.088Z,0.40
2022-12-04T06:02:48.349Z,0.00
2022-12-04T06:05:51.667Z,-0.10
2022-12-04T06:08:57.833Z,0.10
2022-12-04T06:12:00.999Z,0.00
2022-12-04T06:15:04.667Z,0.00
2022-12-04T06:18:08.605Z,0.00
2022-12-04T06:21:12.484Z,0.00
2022-12-04T06:24:19.051Z,0.00
2022-12-04T06:27:29.684Z,0.00
2022-12-04T06:30:34.661Z,-0.10
2022-12-04T06:33:38.254Z,0.00
2022-12-04T06:36:41.437Z,-0.10
2022-12-04T06:39:46.221Z,0.00
2022-12-04T06:42:49.632Z,0.00
2022-12-04T06:46:01.555Z,0.10
2022-12-04T06:49:05.127Z,0.10
2022-12-04T06:52:08.463Z,0.10
2022-12-04T06:55:13.376Z,0.20
2022-12-04T06:58:16.623Z,0.10
2022-12-04T07:01:22.504Z,0.00
2022-12-04T07:04:25.917Z,0.10
2022-12-04T07:07:29.202Z,0.10
2022-12-04T07:10:35.935Z,0.10
2022-12-04T07:13:39.339Z,0.10
2022-12-04T07:16:43.738Z,0.20
2022-12-04T07:19:47.141Z,0.20
2022-12-04T07:22:50.557Z,0.30
2022-12-04T07:25:55.432Z,0.20
2022-12-04T07:28:59.567Z,0.20
2022-12-04T07:32:05.527Z,0.30
2022-12-04T07:35:09.471Z,0.30
2022-12-04T07:38:12.746Z,0.30
2022-12-04T07:41:17.742Z,0.30
2022-12-04T07:44:21.065Z,0.30
2022-12-04T07:47:25.194Z,0.40
2022-12-04T07:50:28.500Z,0.40
2022-12-04T07:53:32.484Z,0.40
2022-12-04T07:56:37.432Z,0.40
2022-12-04T07:59:40.742Z,0.40
2022-12-04T08:02:44.086Z,0.50
2022-12-04T08:05:47.545Z,0.50
2022-12-04T08:08:52.234Z,0.50
2022-12-04T08:11:57.045Z,0.50
2022-12-04T08:15:00.648Z,0.50
2022-12-04T08:18:04.384Z,0.50
2022-12-04T08:21:09.031Z,0.60
2022-12-04T08:24:12.754Z,0.60
2022-12-04T08:27:17.701Z,0.60
2022-12-04T08:30:21.303Z,0.60
2022-12-04T08:33:24.762Z,0.60
2022-12-04T08:36:28.680Z,0.60
2022-12-04T08:39:32.456Z,0.70
2022-12-04T08:42:37.376Z,0.60
2022-12-04T08:45:41.211Z,0.60
2022-12-04T08:48:46.163Z,0.70
2022-12-04T08:51:50.069Z,0.80
2022-12-04T08:54:53.979Z,-0.40
2022-12-04T08:57:58.952Z,0.80
2022-12-04T09:01:06.705Z,0.80
2022-12-04T09:04:10.415Z,0.80
2022-12-04T09:07:14.714Z,0.80
2022-12-04T09:10:18.383Z,0.80
2022-12-04T09:13:24.076Z,0.80
2022-12-04T09:16:28.177Z,0.80
2022-12-04T09:19:32.231Z,0.90
2022-12-04T09:23:02.391Z,0.90
2022-12-04T09:26:03.743Z,0.90
2022-12-04T09:29:17.497Z,0.90
2022-12-04T09:32:21.204Z,0.90
2022-12-04T09:35:26.348Z,0.90
2022-12-04T09:38:31.361Z,0.90
2022-12-04T09:42:18.631Z,1.00
2022-12-04T09:45:27.147Z,0.90
2022-12-04T09:48:42.743Z,0.90
2022-12-04T09:51:51.083Z,1.00
2022-12-04T09:54:58.058Z,1.00
2022-12-04T09:58:04.857Z,1.00
2022-12-04T10:01:23.473Z,1.00
2022-12-04T10:04:27.562Z,1.00
2022-12-04T10:07:47.511Z,1.10
2022-12-04T10:11:13.044Z,1.00
2022-12-04T10:14:51.722Z,1.10
2022-12-04T10:18:27.676Z,1.10
2022-12-04T10:21:43.906Z,1.20
2022-12-04T10:24:52.510Z,1.20
2022-12-04T10:28:03.490Z,1.20
2022-12-04T10:31:13.884Z,1.30
2022-12-04T10:34:28.224Z,1.30
2022-12-04T10:37:36.047Z,1.30
2022-12-04T10:40:48.901Z,1.30
2022-12-04T10:43:53.092Z,1.30
2022-12-04T10:47:00.548Z,1.30
2022-12-04T10:50:15.956Z,1.30
2022-12-04T10:53:33.186Z,1.30
2022-12-04T10:56:37.691Z,1.20
2022-12-04T10:59:49.899Z,1.20
2022-12-04T11:02:55.100Z,1.20
2022-12-04T11:06:05.895Z,1.20
2022-12-04T11:09:18.160Z,1.20
2022-12-04T11:12:26.532Z,1.20
2022-12-04T11:15:31.071Z,1.20
2022-12-04T11:18:37.215Z,1.10
2022-12-04T11:21:43.013Z,1.10
2022-12-04T11:24:52.992Z,1.20
2022-12-04T11:27:59.041Z,1.20
2022-12-04T11:31:06.056Z,1.10
2022-12-04T11:34:17.871Z,1.00
2022-12-04T11:37:37.295Z,1.00
2022-12-04T11:40:49.440Z,1.00
2022-12-04T11:43:59.641Z,1.00
2022-12-04T11:47:07.211Z,1.00
2022-12-04T11:50:18.951Z,1.00
2022-12-04T11:53:39.905Z,1.10
2022-12-04T11:56:49.345Z,1.00
2022-12-04T12:00:06.824Z,1.00
2022-12-04T12:03:21.851Z,0.90
2022-12-04T12:06:37.115Z,1.00
2022-12-04T12:09:53.634Z,1.00
2022-12-04T12:13:07.992Z,1.00
2022-12-04T12:16:22.001Z,1.00
2022-12-04T12:19:56.352Z,1.00
2022-12-04T12:23:16.452Z,1.00
2022-12-04T12:26:21.818Z,0.90
2022-12-04T12:29:40.642Z,0.90
2022-12-04T12:33:05.084Z,0.90
2022-12-04T12:36:12.750Z,0.90
2022-12-04T12:39:23.089Z,0.80
2022-12-04T12:42:34.074Z,0.80
2022-12-04T12:45:48.744Z,0.90
2022-12-04T12:48:58.634Z,0.90
2022-12-04T12:52:10.507Z,0.80
2022-12-04T12:55:21.383Z,0.80
2022-12-04T12:58:34.088Z,0.80
2022-12-04T13:01:48.531Z,0.80
2022-12-04T13:04:57.125Z,0.90
2022-12-04T13:08:08.037Z,0.80
2022-12-04T13:11:15.676Z,0.80
2022-12-04T13:14:21.690Z,0.80
2022-12-04T13:17:35.279Z,0.80
2022-12-04T13:20:50.964Z,0.80
2022-12-04T13:24:08.901Z,0.80
2022-12-04T13:27:20.041Z,0.90
2022-12-04T13:30:28.761Z,0.80
2022-12-04T13:33:50.853Z,0.80
2022-12-04T13:37:26.479Z,0.90
2022-12-04T13:40:37.726Z,0.80
2022-12-04T13:43:48.829Z,0.80
2022-12-04T13:47:03.241Z,0.80
2022-12-04T13:50:29.437Z,0.80
2022-12-04T13:53:37.284Z,0.80
2022-12-04T13:56:42.697Z,0.70
2022-12-04T13:59:49.104Z,0.70
2022-12-04T14:02:59.597Z,0.70
2022-12-04T14:06:06.850Z,0.70
2022-12-04T14:09:23.524Z,0.70
2022-12-04T14:12:33.964Z,0.70
2022-12-04T14:15:39.828Z,0.70
2022-12-04T14:18:49.005Z,0.70
2022-12-04T14:21:57.201Z,0.70
2022-12-04T14:25:10.219Z,0.70
2022-12-04T14:28:30.606Z,0.60
2022-12-04T14:31:40.130Z,0.70
2022-12-04T14:34:51.131Z,0.70
2022-12-04T14:37:59.570Z,0.70
2022-12-04T14:41:05.077Z,0.70
2022-12-04T14:44:24.618Z,0.70
2022-12-04T14:47:45.001Z,0.60
2022-12-04T14:50:55.622Z,0.60
2022-12-04T14:54:06.715Z,0.70
2022-12-04T14:57:33.883Z,0.70
2022-12-04T15:00:39.195Z,0.70
2022-12-04T15:03:46.934Z,0.60
2022-12-04T15:06:59.726Z,0.60
2022-12-04T15:10:32.413Z,0.60
2022-12-04T15:13:39.359Z,0.60
2022-12-04T15:16:43.650Z,0.70
2022-12-04T15:19:47.095Z,0.60
2022-12-04T15:22:52.720Z,0.60
2022-12-04T15:25:58.878Z,0.60
2022-12-04T15:29:04.407Z,0.60
2022-12-04T15:32:13.114Z,0.60
2022-12-04T15:35:21.802Z,0.60
2022-12-04T15:38:27.220Z,0.60
2022-12-04T15:41:33.297Z,0.60
2022-12-04T15:44:37.943Z,0.60
2022-12-04T15:47:54.472Z,0.60
2022-12-04T15:51:01.178Z,0.60
2022-12-04T15:54:06.409Z,0.60
2022-12-04T15:57:23.713Z,0.70
2022-12-04T16:00:30.008Z,0.60
2022-12-04T16:03:38.620Z,0.70
2022-12-04T16:06:48.437Z,0.70
2022-12-04T16:10:02.878Z,0.70
2022-12-04T16:13:08.204Z,0.70
2022-12-04T16:16:14.805Z,0.70
2022-12-04T16:19:26.065Z,0.70
2022-12-04T16:22:31.458Z,0.70
2022-12-04T16:25:36.539Z,0.60
2022-12-04T16:28:40.038Z,0.70
2022-12-04T16:31:44.275Z,0.70
2022-12-04T16:34:48.550Z,0.70
2022-12-04T16:37:52.439Z,0.70
2022-12-04T16:40:57.522Z,0.60
2022-12-04T16:44:02.877Z,0.60
2022-12-04T16:47:07.547Z,0.60
2022-12-04T16:50:11.789Z,0.70
2022-12-04T16:53:18.459Z,0.70
2022-12-04T16:56:23.936Z,0.70
2022-12-04T16:59:27.570Z,0.70
2022-12-04T17:02:32.059Z,0.70
2022-12-04T17:05:35.981Z,0.70
2022-12-04T17:08:40.687Z,0.70
2022-12-04T17:11:46.878Z,0.70
2022-12-04T17:14:50.422Z,0.70
2022-12-04T17:17:57.452Z,0.70
2022-12-04T17:21:01.499Z,0.70
2022-12-04T17:24:07.151Z,0.70
2022-12-04T17:27:14.469Z,0.70
2022-12-04T17:30:18.892Z,0.70
2022-12-04T17:33:24.268Z,0.70
2022-12-04T17:36:30.069Z,0.70
2022-12-04T17:39:34.549Z,0.70
2022-12-04T17:42:47.821Z,0.70
2022-12-04T17:45:53.149Z,0.70
2022-12-04T17:49:02.579Z,0.70
2022-12-04T17:52:10.261Z,0.70
2022-12-04T17:55:14.054Z,0.60
2022-12-04T17:58:20.544Z,0.60
2022-12-04T18:01:28.089Z,0.60
2022-12-04T18:04:35.608Z,0.60
2022-12-04T18:07:41.269Z,0.60
2022-12-04T18:10:45.149Z,0.60
2022-12-04T18:13:50.771Z,0.60
2022-12-04T18:16:58.670Z,0.60
2022-12-04T18:20:05.029Z,0.60
2022-12-04T18:23:09.874Z,0.60
2022-12-04T18:26:14.980Z,0.60
2022-12-04T18:29:22.764Z,0.60
2022-12-04T18:32:26.313Z,0.60
2022-12-04T18:35:29.870Z,0.60
2022-12-04T18:38:34.555Z,0.60
2022-12-04T18:41:39.004Z,0.60
2022-12-04T18:44:46.695Z,0.60
2022-12-04T18:47:50.199Z,0.60
2022-12-04T18:50:54.843Z,0.60
2022-12-04T18:54:03.615Z,0.60
2022-12-04T18:57:07.094Z,0.60
2022-12-04T19:00:13.044Z,0.50
2022-12-04T19:03:16.816Z,0.50
2022-12-04T19:06:22.926Z,0.50
2022-12-04T19:10:02.604Z,0.50
2022-12-04T19:12:52.887Z,0.50
2022-12-04T19:15:57.832Z,0.50
2022-12-04T19:19:01.652Z,0.50
2022-12-04T19:22:08.746Z,0.50
2022-12-04T19:25:12.995Z,0.50
2022-12-04T19:28:18.034Z,0.50
2022-12-04T19:31:25.114Z,0.50
2022-12-04T19:34:28.991Z,0.50
2022-12-04T19:37:34.913Z,0.50
2022-12-04T19:40:42.001Z,0.50
2022-12-04T19:43:47.646Z,0.50
2022-12-04T19:46:54.122Z,0.50
2022-12-04T19:50:03.208Z,0.50
2022-12-04T19:53:06.541Z,0.50
2022-12-04T19:56:12.379Z,0.50
2022-12-04T19:59:18.538Z,0.60
2022-12-04T20:02:23.455Z,0.50
2022-12-04T20:05:28.179Z,0.50
2022-12-04T20:08:31.603Z,0.40
2022-12-04T20:11:38.626Z,0.40
2022-12-04T20:14:50.861Z,0.40
2022-12-04T20:17:58.925Z,0.40
2022-12-04T20:21:03.694Z,0.40
2022-12-04T20:24:13.455Z,0.40
2022-12-04T20:27:17.690Z,0.40
2022-12-04T20:30:22.381Z,0.40
2022-12-04T20:33:27.191Z,0.40
2022-12-04T20:36:32.580Z,0.40
2022-12-04T20:39:36.042Z,0.40
2022-12-04T20:42:39.436Z,0.40
2022-12-04T20:45:42.897Z,0.40
2022-12-04T20:48:49.402Z,0.30
2022-12-04T20:51:53.515Z,0.30
2022-12-04T20:54:57.081Z,0.30
2022-12-04T20:58:04.338Z,0.30
2022-12-04T21:01:13.395Z,0.30
2022-12-04T21:04:22.756Z,0.30
2022-12-04T21:07:27.540Z,0.30
2022-12-04T21:10:33.740Z,0.30
2022-12-04T21:13:57.340Z,0.50
2022-12-04T21:17:06.683Z,0.30
2022-12-04T21:20:13.814Z,0.20
2022-12-04T21:23:32.245Z,0.20
2022-12-04T21:26:36.498Z,0.20
2022-12-04T21:29:41.463Z,0.20
2022-12-04T21:32:46.555Z,0.20
2022-12-04T21:35:51.392Z,0.10
2022-12-04T21:38:55.590Z,0.10
2022-12-04T21:42:16.284Z,0.10
2022-12-04T21:45:21.683Z,0.10
2022-12-04T21:48:25.116Z,0.10
2022-12-04T21:51:56.262Z,0.10
2022-12-04T21:54:56.308Z,0.10
2022-12-04T21:57:59.546Z,0.30
2022-12-04T22:01:11.666Z,0.40
2022-12-04T22:04:15.055Z,0.10
2022-12-04T22:07:19.912Z,0.50
2022-12-04T22:10:23.221Z,0.10
2022-12-04T22:13:26.487Z,0.20
2022-12-04T22:16:30.972Z,0.20
2022-12-04T22:19:35.098Z,0.20
2022-12-04T22:22:42.060Z,0.20
2022-12-04T22:25:45.282Z,0.30
2022-12-04T22:28:49.720Z,0.20
2022-12-04T22:31:53.251Z,0.20
2022-12-04T22:34:56.733Z,0.20
2022-12-04T22:38:02.915Z,0.10
2022-12-04T22:41:09.616Z,0.10
2022-12-04T22:44:12.755Z,0.10
2022-12-04T22:47:16.148Z,0.10
2022-12-04T22:50:19.766Z,0.10
2022-12-04T22:53:24.662Z,0.10
2022-12-04T22:56:30.208Z,0.10
2022-12-04T22:59:33.468Z,0.20
2022-12-04T23:02:36.968Z,0.20
2022-12-04T23:05:40.538Z,0.10
2022-12-04T23:08:45.982Z,0.10
2022-12-04T23:11:52.966Z,0.10
2022-12-04T23:14:56.240Z,0.10
2022-12-04T23:17:59.629Z,0.10
2022-12-04T23:21:04.789Z,0.10
2022-12-04T23:24:09.708Z,0.10
2022-12-04T23:27:12.959Z,0.20
2022-12-04T23:30:20.173Z,0.10
2022-12-04T23:33:26.775Z,0.20
2022-12-04T23:36:30.238Z,0.10
2022-12-04T23:39:34.805Z,0.10
2022-12-04T23:42:38.212Z,0.10
2022-12-04T23:45:41.484Z,0.20
2022-12-04T23:48:46.283Z,0.20
2022-12-04T23:51:49.447Z,0.20
2022-12-04T23:54:54.060Z,0.30
2022-12-04T23:57:57.319Z,0.30
